Aérodrome :
LOGIN :

S'inscrire | Disclaimer

   EN    FR    IT 

 










Légende :    VFR   VFR Marginal   IFR   IFR Intensif   IFR Très Intensif
Visi : 
Plafond : 
>= 8 km
>= 3000ft
5 à 8 km
1000 à 3000 ft
1500m à 5 km
500 à 1000 ft
800 à 1500m
200 à 500 ft
< 800m
< 200 ft
Symboles :   Orages  Brouillard  Fortes neiges  Fortes précipitations  Vent > 20 kt
SIGMETs :   Divers  Orages  Givrage  Turbulence  Onde Orograph.  Cendres Volcan.






- Altitude de l'aérodrome : 526 ft
- Code IATA : LTN


EGGW - London Luton

DERNIER METAR :
  • 160620Z AUTO 20007KT 150V230 9999 BKN003 OVC006 08/08 Q0998

METARs EXPIRÉS :
  • 160550Z AUTO 20006KT 8000 BKN002 OVC005 08/07 Q0998
  • 160520Z 21007KT 160V230 1200 BR VV/// 07/07 Q0998
  • 160450Z AUTO 21008KT 0350 R25/0500 FG OVC001 07/06 Q0998
  • 160420Z AUTO 20007KT 0900 R25/1400 FG BKN001 BKN047 07/06 Q0998
  • 160350Z AUTO 20006KT 9999 NCD 06/06 Q0998

TAF AMD TAF EGGW
Valide du 16 à 06h jusqu'au 17 à 06h UTC


160556Z 1606/1706 22007KT 8000 BKN002
BECMG 1606/1609 9999 SCT025
TEMPO 1609/1622 6000 SHRA
PROB30
TEMPO 1610/1621 3000 +SHRA +TSRAGS BKN011 BKN028CB
PROB30
TEMPO 1622/1706 BKN005
BECMG 1700/1703 31010KT
ATIS : +44 1582 395 204



MET'MAP, la Météo Aéronautique d'un coup d'oeil ! - Copyright ORBIFLY Décembre 2007 - Disclaimer

ORBIFLY MET'MAP TEAM :

Programmation & Développement : Alexandra Zaïnal
Sur une idée originale de : Baudouin d'Aumeries
Assistance à la programmation : Marc-Olivier Méhu
Soutien technique & logistique : Manuel Goepfert

Contact : metmap@orbifly.com




SOURCES & CREDITS :

   NOAA